Time;durP1;ratioP1;P1;durP2;ratioP2;P2;SDS_P1;SDS_P2;PMS_P1;PMS_P2;Temp;Humidity;BMP_temperature;BMP_pressure;BME280_temperature;BME280_humidity;BME280_pressure;Samples;Min_cycle;Max_cycle;Signal;HPM_P1;HPM_P2
2023/09/14 00:00:13;;;;;;;4.50;2.40;;;;;;;12.42;100.00;101350.47;694226;28;2356;-66
2023/09/14 00:00:33;;;;;;;5.78;2.30;;;;;;;12.43;100.00;101349.56;694456;28;889;-66
2023/09/14 00:00:54;;;;;;;5.03;2.20;;;;;;;12.42;100.00;101348.69;695234;28;958;-66
2023/09/14 00:01:15;;;;;;;4.75;2.10;;;;;;;12.42;100.00;101353.09;691173;28;4373;-66
2023/09/14 00:01:35;;;;;;;5.00;2.50;;;;;;;12.40;100.00;101350.44;695290;28;881;-65
2023/09/14 00:01:55;;;;;;;4.70;2.30;;;;;;;12.41;100.00;101356.56;694486;28;817;-65
2023/09/14 00:02:16;;;;;;;5.40;2.15;;;;;;;12.40;100.00;101352.19;693999;28;1692;-66
2023/09/14 00:02:36;;;;;;;4.50;2.10;;;;;;;12.41;100.00;101360.06;695428;28;1034;-66
2023/09/14 00:02:58;;;;;;;4.60;2.10;;;;;;;12.41;100.00;101353.94;695706;28;1436;-66
2023/09/14 00:03:19;;;;;;;4.22;2.05;;;;;;;12.40;100.00;101358.31;693432;28;1736;-66
2023/09/14 00:03:39;;;;;;;4.60;2.00;;;;;;;12.41;100.00;101341.69;694770;28;1910;-66
2023/09/14 00:03:59;;;;;;;6.47;2.30;;;;;;;12.41;100.00;101346.09;695497;28;966;-66
2023/09/14 00:04:20;;;;;;;8.40;2.55;;;;;;;12.35;100.00;101353.94;693062;28;4350;-66
2023/09/14 00:04:40;;;;;;;5.40;2.30;;;;;;;12.32;100.00;101354.81;695018;28;1317;-66
2023/09/14 00:05:01;;;;;;;3.85;2.20;;;;;;;12.32;100.00;101348.72;694960;28;943;-66
2023/09/14 00:05:21;;;;;;;4.30;2.20;;;;;;;12.32;100.00;101352.19;693385;28;1881;-66
2023/09/14 00:05:43;;;;;;;3.97;2.10;;;;;;;12.35;100.00;101351.31;694403;28;1247;-66
2023/09/14 00:06:04;;;;;;;4.95;2.08;;;;;;;12.35;100.00;101351.31;694348;28;1229;-66
2023/09/14 00:06:24;;;;;;;5.80;2.67;;;;;;;12.36;100.00;101353.06;693387;28;1753;-66
2023/09/14 00:06:44;;;;;;;4.47;2.20;;;;;;;12.36;100.00;101351.31;695494;28;959;-66
2023/09/14 00:07:05;;;;;;;4.17;2.07;;;;;;;12.34;100.00;101346.97;695840;28;959;-66
2023/09/14 00:07:25;;;;;;;4.88;2.20;;;;;;;12.32;100.00;101353.94;693327;28;4668;-65
2023/09/14 00:07:45;;;;;;;4.93;2.17;;;;;;;12.33;100.00;101350.47;695262;28;1154;-65
2023/09/14 00:08:06;;;;;;;5.77;2.47;;;;;;;12.26;100.00;101355.69;694896;28;920;-65
2023/09/14 00:08:30;;;;;;;5.65;2.47;;;;;;;12.24;100.00;101353.97;694025;28;1911;-66
2023/09/14 00:08:50;;;;;;;6.35;2.47;;;;;;;12.22;100.00;101350.47;694703;28;916;-65
2023/09/14 00:09:11;;;;;;;5.23;2.30;;;;;;;12.23;100.00;101357.47;695576;28;797;-66
2023/09/14 00:09:31;;;;;;;4.88;2.10;;;;;;;12.25;100.00;101355.69;693031;28;1620;-66
2023/09/14 00:09:51;;;;;;;4.13;2.20;;;;;;;12.28;100.00;101350.47;695472;28;1442;-65
2023/09/14 00:10:12;;;;;;;6.63;2.50;;;;;;;12.30;100.00;101347.84;693277;28;4710;-65
2023/09/14 00:10:32;;;;;;;5.50;2.35;;;;;;;12.31;100.00;101345.22;694558;28;987;-65
2023/09/14 00:10:54;;;;;;;5.17;2.20;;;;;;;12.31;100.00;101347.84;694155;28;1348;-65
2023/09/14 00:11:15;;;;;;;5.20;2.40;;;;;;;12.36;100.00;101353.06;694094;28;1930;-66
2023/09/14 00:11:35;;;;;;;6.70;2.43;;;;;;;12.36;100.00;101348.69;694672;28;987;-65
2023/09/14 00:11:56;;;;;;;6.07;2.17;;;;;;;12.38;100.00;101351.34;694761;28;888;-65
2023/09/14 00:12:16;;;;;;;4.80;2.20;;;;;;;12.40;100.00;101352.19;693823;28;953;-66
2023/09/14 00:12:36;;;;;;;5.07;2.50;;;;;;;12.39;100.00;101343.47;695255;28;916;-66
2023/09/14 00:12:57;;;;;;;5.25;2.22;;;;;;;12.38;100.00;101353.97;693639;28;1354;-65
2023/09/14 00:13:17;;;;;;;4.30;2.20;;;;;;;12.38;100.00;101353.97;693540;28;4431;-65
2023/09/14 00:13:37;;;;;;;5.20;2.10;;;;;;;12.37;100.00;101346.97;695221;28;872;-65
2023/09/14 00:13:58;;;;;;;5.87;2.40;;;;;;;12.36;100.00;101351.31;694838;28;773;-66
2023/09/14 00:14:18;;;;;;;5.70;2.30;;;;;;;12.33;100.00;101348.69;694245;28;1709;-66
2023/09/14 00:14:38;;;;;;;4.20;2.20;;;;;;;12.33;100.00;101356.56;694516;28;1360;-66
2023/09/14 00:14:59;;;;;;;5.07;2.30;;;;;;;12.29;100.00;101346.97;694326;28;765;-66
2023/09/14 00:15:19;;;;;;;5.47;2.23;;;;;;;12.26;100.00;101349.59;694048;28;1711;-66
2023/09/14 00:15:39;;;;;;;5.10;2.25;;;;;;;12.25;100.00;101348.72;695486;28;884;-66
2023/09/14 00:16:00;;;;;;;5.43;2.10;;;;;;;12.26;100.00;101350.44;694580;28;911;-65
2023/09/14 00:16:20;;;;;;;4.22;2.10;;;;;;;12.26;100.00;101346.97;693016;28;4405;-66
2023/09/14 00:16:40;;;;;;;4.63;2.30;;;;;;;12.23;100.00;101349.59;695440;28;796;-66
2023/09/14 00:17:01;;;;;;;4.80;2.40;;;;;;;12.23;100.00;101347.84;694315;28;959;-66
2023/09/14 00:17:21;;;;;;;5.30;2.40;;;;;;;12.23;100.00;101347.84;694294;28;1597;-66
2023/09/14 00:17:42;;;;;;;4.13;2.13;;;;;;;12.24;100.00;101348.72;694636;28;1238;-66
2023/09/14 00:18:03;;;;;;;5.15;2.00;;;;;;;12.20;100.00;101350.47;695106;28;1003;-65
2023/09/14 00:18:23;;;;;;;4.28;2.00;;;;;;;12.17;100.00;101344.34;694307;28;1692;-66
2023/09/14 00:18:44;;;;;;;4.70;2.20;;;;;;;12.23;100.00;101352.22;694848;28;793;-65
2023/09/14 00:19:04;;;;;;;5.43;2.20;;;;;;;12.33;100.00;101350.47;694224;28;844;-66
2023/09/14 00:19:26;;;;;;;4.90;2.27;;;;;;;12.32;100.00;101351.31;693706;28;4476;-64
2023/09/14 00:19:47;;;;;;;4.68;2.47;;;;;;;12.27;100.00;101352.22;694397;28;3096;-66
2023/09/14 00:20:09;;;;;;;5.13;2.50;;;;;;;12.25;100.00;101348.72;695092;28;1536;-66
2023/09/14 00:20:30;;;;;;;6.40;2.40;;;;;;;12.26;100.00;101345.22;693977;28;1927;-66
2023/09/14 00:20:52;;;;;;;7.10;2.30;;;;;;;12.24;100.00;101353.97;694915;28;1385;-65
2023/09/14 00:21:13;;;;;;;5.05;2.15;;;;;;;12.24;100.00;101354.84;693498;28;1827;-65
2023/09/14 00:21:33;;;;;;;4.80;2.30;;;;;;;12.24;100.00;101348.72;694744;28;944;-66
2023/09/14 00:21:53;;;;;;;4.80;2.37;;;;;;;12.22;100.00;101350.47;695156;28;892;-66
2023/09/14 00:22:17;;;;;;;4.78;2.20;;;;;;;12.21;100.00;101352.22;692237;28;4711;-66
2023/09/14 00:22:37;;;;;;;5.78;2.40;;;;;;;12.22;100.00;101353.09;693530;28;1324;-65
2023/09/14 00:22:58;;;;;;;5.50;2.40;;;;;;;12.21;100.00;101349.59;695154;28;1295;-66
2023/09/14 00:23:20;;;;;;;5.70;2.20;;;;;;;12.19;100.00;101350.47;690365;28;1945;-66
2023/09/14 00:23:40;;;;;;;5.32;2.33;;;;;;;12.19;100.00;101350.47;693118;28;1957;-66
2023/09/14 00:24:01;;;;;;;6.10;2.83;;;;;;;12.15;100.00;101354.84;694153;28;1007;-65
2023/09/14 00:24:21;;;;;;;5.30;2.40;;;;;;;12.15;100.00;101349.59;692033;28;2433;-65
2023/09/14 00:24:42;;;;;;;5.53;2.45;;;;;;;12.15;100.00;101354.84;694116;28;1331;-66
2023/09/14 00:25:02;;;;;;;5.25;2.47;;;;;;;12.14;100.00;101353.06;693635;28;868;-66
2023/09/14 00:25:24;;;;;;;5.03;2.33;;;;;;;12.15;100.00;101353.97;692777;28;4309;-66
2023/09/14 00:25:44;;;;;;;4.90;2.30;;;;;;;12.21;100.00;101352.22;694893;28;1297;-66
2023/09/14 00:26:05;;;;;;;5.70;2.10;;;;;;;12.25;100.00;101353.97;694859;28;931;-66
2023/09/14 00:26:25;;;;;;;4.47;2.22;;;;;;;12.35;100.00;101351.31;692198;28;1443;-66
2023/09/14 00:26:45;;;;;;;4.37;2.10;;;;;;;12.41;100.00;101356.56;694563;28;785;-65
2023/09/14 00:27:06;;;;;;;4.40;2.20;;;;;;;12.39;100.00;101355.69;691655;28;1230;-65
2023/09/14 00:27:26;;;;;;;5.23;2.27;;;;;;;12.38;100.00;101343.47;689560;28;1870;-65
2023/09/14 00:27:47;;;;;;;4.93;2.17;;;;;;;12.34;100.00;101346.97;691410;28;952;-66
2023/09/14 00:28:08;;;;;;;5.05;2.10;;;;;;;12.31;100.00;101353.09;687764;28;4439;-65
2023/09/14 00:28:29;;;;;;;5.17;2.23;;;;;;;12.27;100.00;101349.59;686966;28;1759;-66
2023/09/14 00:28:50;;;;;;;5.82;2.70;;;;;;;12.26;100.00;101353.06;687604;28;941;-65
2023/09/14 00:29:10;;;;;;;6.37;2.37;;;;;;;12.24;100.00;101348.72;692064;28;1325;-66
2023/09/14 00:29:31;;;;;;;5.63;2.13;;;;;;;12.22;100.00;101342.59;689307;28;1970;-65
2023/09/14 00:29:51;;;;;;;4.40;1.90;;;;;;;12.18;100.00;101354.81;692166;28;1007;-65
2023/09/14 00:30:13;;;;;;;4.10;2.17;;;;;;;12.18;100.00;101353.97;692176;28;951;-65
2023/09/14 00:30:33;;;;;;;4.35;2.20;;;;;;;12.30;100.00;101355.72;693527;28;2542;-65
2023/09/14 00:30:56;;;;;;;4.65;2.63;;;;;;;12.32;100.00;101352.19;691234;28;1297;-65
2023/09/14 00:31:16;;;;;;;4.78;2.67;;;;;;;12.25;100.00;101353.06;689842;28;4832;-66
2023/09/14 00:31:38;;;;;;;5.00;2.25;;;;;;;12.23;100.00;101353.09;691533;28;1430;-65
2023/09/14 00:32:01;;;;;;;5.22;2.28;;;;;;;12.23;100.00;101347.84;692529;28;940;-66
2023/09/14 00:32:21;;;;;;;4.53;2.30;;;;;;;12.22;100.00;101348.72;687319;28;1524;-65
2023/09/14 00:32:42;;;;;;;5.57;2.43;;;;;;;12.23;100.00;101352.22;686168;28;1575;-65
2023/09/14 00:33:03;;;;;;;4.97;2.25;;;;;;;12.23;100.00;101358.31;690027;28;790;-66
2023/09/14 00:33:24;;;;;;;5.30;2.25;;;;;;;12.21;100.00;101353.94;687688;28;2188;-66
2023/09/14 00:33:44;;;;;;;5.27;2.20;;;;;;;12.20;100.00;101345.22;687354;28;1314;-65
2023/09/14 00:34:04;;;;;;;5.05;2.10;;;;;;;12.18;100.00;101349.59;685995;28;869;-65
2023/09/14 00:34:25;;;;;;;5.00;2.20;;;;;;;12.15;100.00;101348.72;684602;28;4443;-65
2023/09/14 00:34:45;;;;;;;4.30;2.30;;;;;;;12.13;100.00;101356.59;689687;28;928;-65
2023/09/14 00:35:07;;;;;;;5.90;2.33;;;;;;;12.12;100.00;101354.84;687089;28;1410;-65
2023/09/14 00:35:27;;;;;;;6.15;2.40;;;;;;;12.12;100.00;101349.59;688252;28;1792;-65
2023/09/14 00:35:48;;;;;;;4.17;2.30;;;;;;;12.12;100.00;101357.47;688384;28;1230;-66
2023/09/14 00:36:08;;;;;;;4.70;2.35;;;;;;;12.14;100.00;101347.84;691510;28;821;-65
2023/09/14 00:36:30;;;;;;;5.40;2.30;;;;;;;12.13;100.00;101351.34;690357;28;1722;-66
2023/09/14 00:36:50;;;;;;;5.68;2.28;;;;;;;12.11;100.00;101358.31;691436;28;1750;-65
2023/09/14 00:37:10;;;;;;;5.70;2.40;;;;;;;12.05;100.00;101347.84;693602;28;4812;-65
2023/09/14 00:37:31;;;;;;;5.27;2.43;;;;;;;12.05;100.00;101358.34;691811;28;2396;-66
2023/09/14 00:37:51;;;;;;;5.45;2.20;;;;;;;12.06;100.00;101360.09;694332;28;841;-64
2023/09/14 00:38:12;;;;;;;5.30;2.20;;;;;;;12.06;100.00;101353.09;693165;28;832;-65
2023/09/14 00:38:32;;;;;;;5.22;2.22;;;;;;;12.09;100.00;101357.47;690293;28;2324;-65
2023/09/14 00:38:52;;;;;;;6.57;2.10;;;;;;;12.06;100.00;101360.97;690467;28;1046;-65
2023/09/14 00:39:13;;;;;;;5.30;2.30;;;;;;;12.03;100.00;101350.47;688812;28;1060;-66
2023/09/14 00:39:33;;;;;;;4.60;2.20;;;;;;;12.04;100.00;101354.81;691588;28;1073;-66
2023/09/14 00:39:53;;;;;;;4.87;2.40;;;;;;;12.02;100.00;101356.59;692273;28;987;-65
2023/09/14 00:40:15;;;;;;;4.95;2.30;;;;;;;12.01;100.00;101357.44;691981;28;4391;-66
2023/09/14 00:40:38;;;;;;;5.43;2.30;;;;;;;12.09;100.00;101360.09;694844;28;1041;-66
2023/09/14 00:40:58;;;;;;;5.40;2.40;;;;;;;12.23;100.00;101358.31;695714;28;987;-65
2023/09/14 00:41:18;;;;;;;5.28;2.50;;;;;;;12.41;100.00;101362.69;693667;28;1490;-64
2023/09/14 00:41:39;;;;;;;4.70;2.33;;;;;;;12.46;100.00;101354.81;695549;28;947;-65
2023/09/14 00:41:59;;;;;;;5.60;2.20;;;;;;;12.50;100.00;101350.44;692151;28;1282;-65
2023/09/14 00:42:19;;;;;;;5.17;2.27;;;;;;;12.41;100.00;101346.94;691061;28;5180;-65
2023/09/14 00:42:53;;;;;;;4.03;2.03;;;;;;;12.36;100.00;101348.69;692925;28;746;-65
2023/09/14 00:43:13;;;;;;;4.85;2.22;;;;;;;12.27;100.00;101349.59;693231;28;5211;-65
2023/09/14 00:43:34;;;;;;;6.37;2.43;;;;;;;12.23;100.00;101346.97;693598;28;1971;-66
2023/09/14 00:43:54;;;;;;;5.78;2.60;;;;;;;12.18;100.00;101343.47;694437;28;1306;-65
2023/09/14 00:44:15;;;;;;;7.00;2.50;;;;;;;12.14;100.00;101349.59;696335;28;1255;-64
2023/09/14 00:44:36;;;;;;;7.13;2.40;;;;;;;12.12;100.00;101349.59;698361;28;958;-65
2023/09/14 00:44:56;;;;;;;4.03;2.20;;;;;;;12.20;100.00;101345.22;695578;28;935;-64
2023/09/14 00:45:20;;;;;;;4.80;2.10;;;;;;;12.35;100.00;101351.31;693974;28;1879;-65
2023/09/14 00:45:40;;;;;;;5.05;2.40;;;;;;;12.43;100.00;101346.94;693444;28;2085;-65
2023/09/14 00:46:02;;;;;;;5.07;2.30;;;;;;;12.37;100.00;101354.84;692965;28;1187;-65
2023/09/14 00:46:22;;;;;;;5.03;2.40;;;;;;;12.34;100.00;101349.59;686836;28;4394;-65
2023/09/14 00:46:43;;;;;;;4.65;2.30;;;;;;;12.29;100.00;101343.47;689927;28;1294;-65
2023/09/14 00:47:03;;;;;;;4.60;2.20;;;;;;;12.23;100.00;101347.84;690403;28;759;-65
2023/09/14 00:47:24;;;;;;;6.88;2.70;;;;;;;12.19;100.00;101350.47;688598;28;1265;-66
2023/09/14 00:47:58;;;;;;;6.43;2.70;;;;;;;12.14;100.00;101352.22;693359;28;1299;-65
2023/09/14 00:48:19;;;;;;;4.55;2.40;;;;;;;12.09;100.00;101349.59;696409;28;1509;-66
2023/09/14 00:48:39;;;;;;;4.72;2.17;;;;;;;12.04;100.00;101352.22;698183;28;899;-65
2023/09/14 00:49:01;;;;;;;4.65;2.38;;;;;;;12.03;100.00;101354.81;697528;28;974;-66
2023/09/14 00:49:21;;;;;;;4.57;2.63;;;;;;;12.08;100.00;101350.47;693942;28;4528;-65
2023/09/14 00:49:42;;;;;;;4.05;2.17;;;;;;;12.08;100.00;101351.34;695157;28;986;-66
2023/09/14 00:50:05;;;;;;;4.68;2.20;;;;;;;12.03;100.00;101354.81;695494;28;1380;-65
2023/09/14 00:50:26;;;;;;;6.10;2.50;;;;;;;11.95;100.00;101353.94;694258;28;998;-65
2023/09/14 00:50:47;;;;;;;5.10;2.35;;;;;;;11.92;100.00;101345.19;694896;28;816;-65
2023/09/14 00:51:07;;;;;;;5.40;2.40;;;;;;;11.98;100.00;101353.97;694990;28;809;-66
2023/09/14 00:51:29;;;;;;;4.95;2.30;;;;;;;11.97;100.00;101347.84;694152;28;2918;-65
2023/09/14 00:51:50;;;;;;;5.43;2.30;;;;;;;11.98;100.00;101348.72;695464;28;828;-66
2023/09/14 00:52:10;;;;;;;5.35;2.38;;;;;;;11.96;100.00;101345.22;694696;28;4381;-65
2023/09/14 00:52:33;;;;;;;4.70;2.20;;;;;;;11.95;100.00;101346.97;693767;28;1498;-65
2023/09/14 00:53:00;;;;;;;5.47;2.45;;;;;;;11.95;100.00;101353.94;695296;28;1014;-66
2023/09/14 00:53:21;;;;;;;5.28;2.50;;;;;;;11.90;100.00;101360.03;693445;28;2043;-65
2023/09/14 00:53:41;;;;;;;6.00;2.58;;;;;;;11.90;100.00;101348.69;694951;28;1179;-66
2023/09/14 00:54:03;;;;;;;5.87;2.43;;;;;;;11.88;100.00;101356.56;692610;28;1357;-66
2023/09/14 00:54:23;;;;;;;4.50;2.30;;;;;;;11.85;100.00;101351.31;688806;28;2071;-66
2023/09/14 00:54:43;;;;;;;5.10;2.40;;;;;;;11.83;100.00;101353.03;689412;28;1373;-65
2023/09/14 00:55:06;;;;;;;5.28;2.50;;;;;;;11.83;100.00;101354.81;689863;28;1232;-66
2023/09/14 00:55:27;;;;;;;4.57;2.30;;;;;;;11.81;100.00;101349.56;688503;28;4669;-66
2023/09/14 00:55:51;;;;;;;5.65;2.35;;;;;;;11.80;100.00;101353.03;687943;28;1308;-66
2023/09/14 00:56:11;;;;;;;3.95;2.25;;;;;;;11.77;100.00;101353.06;686758;28;1449;-66
2023/09/14 00:56:32;;;;;;;5.87;2.20;;;;;;;11.76;100.00;101348.66;685592;28;1733;-65
2023/09/14 00:56:52;;;;;;;5.73;2.10;;;;;;;11.80;100.00;101353.03;684330;28;1373;-65
2023/09/14 00:57:12;;;;;;;6.00;2.87;;;;;;;11.81;100.00;101348.66;686696;28;738;-66
2023/09/14 00:57:35;;;;;;;5.23;2.63;;;;;;;11.82;100.00;101351.28;684646;28;1976;-65
2023/09/14 00:57:56;;;;;;;4.35;2.40;;;;;;;11.82;100.00;101346.03;686733;28;1358;-66
2023/09/14 00:58:16;;;;;;;4.53;2.30;;;;;;;11.85;100.00;101355.66;685483;28;4733;-64
2023/09/14 00:58:40;;;;;;;4.95;2.40;;;;;;;11.85;100.00;101350.41;689518;28;916;-66
2023/09/14 00:59:02;;;;;;;4.70;2.40;;;;;;;11.86;100.00;101347.78;693588;28;971;-66
2023/09/14 00:59:23;;;;;;;5.97;2.38;;;;;;;11.87;100.00;101353.94;694178;28;2250;-66
2023/09/14 00:59:44;;;;;;;5.03;2.20;;;;;;;11.85;100.00;101350.41;697720;28;1597;-66
2023/09/14 01:00:10;;;;;;;5.45;2.40;;;;;;;11.80;100.00;101353.03;697787;28;812;-65
2023/09/14 01:00:31;;;;;;;5.97;2.70;;;;;;;11.79;100.00;101346.06;694045;28;1693;-66
2023/09/14 01:00:51;;;;;;;4.95;2.28;;;;;;;11.79;100.00;101348.66;694929;28;1383;-66
2023/09/14 01:01:14;;;;;;;5.13;2.17;;;;;;;11.78;100.00;101354.78;691656;28;4696;-66
2023/09/14 01:01:37;;;;;;;5.28;2.40;;;;;;;11.75;100.00;101354.78;691541;28;2282;-65
2023/09/14 01:01:57;;;;;;;7.80;2.50;;;;;;;11.73;100.00;101353.91;689507;28;1231;-66
2023/09/14 01:02:18;;;;;;;7.40;2.50;;;;;;;11.72;100.00;101346.91;686870;28;895;-66
2023/09/14 01:02:41;;;;;;;5.80;2.50;;;;;;;11.72;100.00;101350.41;690775;28;1104;-66
2023/09/14 01:03:03;;;;;;;5.32;2.33;;;;;;;11.75;100.00;101352.16;690906;28;857;-66
2023/09/14 01:03:24;;;;;;;4.35;2.40;;;;;;;11.74;100.00;101345.16;690710;28;1878;-65
2023/09/14 01:03:45;;;;;;;4.35;2.33;;;;;;;11.73;100.00;101351.28;693663;28;1983;-66
2023/09/14 01:04:06;;;;;;;5.75;2.50;;;;;;;11.73;100.00;101346.06;695691;28;1438;-65
2023/09/14 01:04:30;;;;;;;5.45;2.78;;;;;;;11.73;100.00;101348.69;693736;28;4893;-65
2023/09/14 01:04:50;;;;;;;4.78;2.70;;;;;;;11.74;100.00;101353.03;695160;28;888;-66
2023/09/14 01:05:16;;;;;;;4.90;2.43;;;;;;;11.78;100.00;101352.16;695444;28;888;-65
2023/09/14 01:05:36;;;;;;;5.13;2.33;;;;;;;11.78;100.00;101348.66;694432;28;1909;-66
2023/09/14 01:05:58;;;;;;;4.97;2.30;;;;;;;11.76;100.00;101349.53;692350;28;1416;-65
2023/09/14 01:06:18;;;;;;;5.05;2.38;;;;;;;11.77;100.00;101345.19;691399;28;2214;-66
2023/09/14 01:06:38;;;;;;;6.50;2.40;;;;;;;11.79;100.00;101355.66;693366;28;2456;-66
2023/09/14 01:06:59;;;;;;;6.53;2.50;;;;;;;11.80;100.00;101355.66;695256;28;1299;-65
2023/09/14 01:07:19;;;;;;;5.28;2.50;;;;;;;11.81;100.00;101357.41;690924;28;4666;-66
2023/09/14 01:07:41;;;;;;;4.70;2.60;;;;;;;11.82;100.00;101351.28;691087;28;1246;-66
2023/09/14 01:08:01;;;;;;;3.85;2.20;;;;;;;11.83;100.00;101352.19;691573;28;982;-65
2023/09/14 01:08:21;;;;;;;5.13;2.20;;;;;;;11.83;100.00;101346.94;689780;28;1789;-65
2023/09/14 01:08:42;;;;;;;5.37;2.20;;;;;;;11.82;100.00;101351.28;689841;28;820;-66
2023/09/14 01:09:05;;;;;;;4.93;2.13;;;;;;;11.80;100.00;101353.03;686687;28;1341;-65
2023/09/14 01:09:25;;;;;;;4.88;2.30;;;;;;;11.77;100.00;101355.66;687406;28;1054;-66
2023/09/14 01:09:46;;;;;;;4.00;2.20;;;;;;;11.76;100.00;101352.16;688495;28;838;-66
2023/09/14 01:10:09;;;;;;;4.20;2.20;;;;;;;11.77;100.00;101353.06;689504;28;837;-66
2023/09/14 01:10:29;;;;;;;4.22;2.20;;;;;;;11.78;100.00;101354.78;688814;28;4884;-65
2023/09/14 01:10:51;;;;;;;6.10;2.25;;;;;;;11.78;100.00;101353.91;689435;28;1397;-65
2023/09/14 01:11:12;;;;;;;5.43;2.15;;;;;;;11.79;100.00;101348.66;692043;28;1254;-66
2023/09/14 01:11:33;;;;;;;4.53;2.20;;;;;;;11.84;100.00;101361.78;692281;28;2575;-66
2023/09/14 01:11:54;;;;;;;5.63;2.37;;;;;;;11.84;100.00;101362.66;692788;28;1211;-65
2023/09/14 01:12:16;;;;;;;4.90;2.40;;;;;;;11.82;100.00;101350.44;692909;28;1302;-66
2023/09/14 01:12:37;;;;;;;4.70;2.30;;;;;;;11.81;100.00;101354.81;691388;28;1895;-67
2023/09/14 01:12:58;;;;;;;4.97;2.20;;;;;;;11.81;100.00;101359.16;695430;28;1180;-66
2023/09/14 01:13:36;;;;;;;4.10;2.05;;;;;;;11.78;100.00;101354.78;692810;28;4419;-65
2023/09/14 01:14:09;;;;;;;6.00;2.80;;;;;;;11.79;100.00;101356.53;694077;28;1308;-66
2023/09/14 01:14:54;;;;;;;4.43;2.30;;;;;;;11.80;100.00;101363.53;692368;28;1860;-66
2023/09/14 01:15:23;;;;;;;5.28;2.30;;;;;;;11.81;100.00;101352.19;694236;28;983;-66
2023/09/14 01:15:51;;;;;;;4.57;2.10;;;;;;;11.81;100.00;101349.56;694375;28;1532;-66
2023/09/14 01:16:53;;;;;;;4.97;2.00;;;;;;;11.79;100.00;101356.53;694524;28;4716;-66
2023/09/14 01:17:23;;;;;;;5.30;2.22;;;;;;;11.88;100.00;101358.28;694354;28;1754;-66
2023/09/14 01:18:01;;;;;;;6.03;2.20;;;;;;;12.02;100.00;101353.09;690207;28;1343;-66
2023/09/14 01:18:27;;;;;;;4.20;2.20;;;;;;;11.99;100.00;101358.31;691264;28;1482;-65
2023/09/14 01:19:09;;;;;;;5.03;2.30;;;;;;;11.89;100.00;101353.06;691576;28;1369;-66
2023/09/14 01:19:30;;;;;;;3.80;2.03;;;;;;;11.85;100.00;101355.66;690530;28;5097;-66
2023/09/14 01:20:15;;;;;;;4.63;2.20;;;;;;;11.82;100.00;101356.53;691827;28;1291;-66
2023/09/14 01:21:00;;;;;;;5.20;2.20;;;;;;;11.76;100.00;101357.38;685045;28;1895;-66
2023/09/14 01:21:29;;;;;;;5.10;2.30;;;;;;;11.75;100.00;101355.66;691690;28;1843;-66
2023/09/14 01:22:10;;;;;;;4.88;2.30;;;;;;;11.71;100.00;101359.16;695542;28;844;-66
2023/09/14 01:22:45;;;;;;;4.07;2.13;;;;;;;11.59;100.00;101352.13;694311;28;5261;-66
2023/09/14 01:23:28;;;;;;;4.85;2.28;;;;;;;11.50;100.00;101356.47;692011;28;1307;-66
2023/09/14 01:24:08;;;;;;;4.70;2.10;;;;;;;11.60;100.00;101358.22;691927;28;2009;-66
2023/09/14 01:25:04;;;;;;;4.78;2.10;;;;;;;11.60;100.00;101363.47;691355;28;1949;-66
2023/09/14 01:25:41;;;;;;;5.10;2.30;;;;;;;11.57;100.00;101356.50;693347;28;4357;-65
2023/09/14 01:26:03;;;;;;;5.13;2.38;;;;;;;11.59;100.00;101360.00;692452;28;1621;-67
2023/09/14 01:26:24;;;;;;;3.35;2.08;;;;;;;11.61;100.00;101354.75;688342;28;1818;-65
2023/09/14 01:26:45;;;;;;;3.75;2.20;;;;;;;11.62;100.00;101359.13;688469;28;1497;-66
2023/09/14 01:27:07;;;;;;;4.20;2.50;;;;;;;11.63;100.00;101357.38;687914;28;825;-66
2023/09/14 01:27:28;;;;;;;5.05;2.40;;;;;;;11.64;100.00;101361.75;687730;28;1869;-66
2023/09/14 01:27:48;;;;;;;4.72;2.20;;;;;;;11.64;100.00;101364.38;688548;28;1120;-65
2023/09/14 01:28:13;;;;;;;4.50;2.30;;;;;;;11.65;100.00;101364.38;690778;28;4499;-66
2023/09/14 01:28:33;;;;;;;4.85;2.30;;;;;;;11.64;100.00;101361.75;691498;28;1770;-66
2023/09/14 01:28:54;;;;;;;4.05;2.30;;;;;;;11.63;100.00;101362.59;692824;28;1241;-67
2023/09/14 01:29:15;;;;;;;4.23;2.10;;;;;;;11.61;100.00;101360.00;688906;28;829;-67
2023/09/14 01:29:36;;;;;;;6.07;2.13;;;;;;;11.61;100.00;101367.00;683869;28;2629;-67
2023/09/14 01:29:57;;;;;;;6.43;2.20;;;;;;;11.59;100.00;101365.22;686739;28;952;-67
2023/09/14 01:30:18;;;;;;;4.97;2.17;;;;;;;11.58;100.00;101360.00;684584;28;877;-66
2023/09/14 01:30:39;;;;;;;4.80;2.23;;;;;;;11.63;100.00;101365.22;685012;28;2419;-66
2023/09/14 01:30:59;;;;;;;4.85;2.33;;;;;;;11.66;100.00;101370.47;689392;28;1222;-65
2023/09/14 01:31:20;;;;;;;4.47;2.30;;;;;;;11.66;100.00;101370.47;688356;28;4379;-67
2023/09/14 01:31:41;;;;;;;6.13;2.27;;;;;;;11.68;100.00;101364.38;688227;28;1274;-66
2023/09/14 01:32:01;;;;;;;5.18;2.20;;;;;;;11.68;100.00;101368.75;688911;28;804;-67
2023/09/14 01:32:22;;;;;;;4.43;2.13;;;;;;;11.68;100.00;101363.50;686787;28;1758;-66
2023/09/14 01:32:43;;;;;;;4.05;2.00;;;;;;;11.67;100.00;101366.97;687129;28;1219;-66
2023/09/14 01:33:09;;;;;;;5.20;2.30;;;;;;;11.70;100.00;101367.88;692574;28;1507;-66
2023/09/14 01:33:31;;;;;;;4.75;2.10;;;;;;;11.74;100.00;101374.88;690624;28;1973;-67
2023/09/14 01:33:51;;;;;;;5.43;2.03;;;;;;;11.73;100.00;101373.09;692263;28;1187;-66
2023/09/14 01:34:12;;;;;;;4.97;2.10;;;;;;;11.72;100.00;101375.72;689197;28;4572;-66
2023/09/14 01:34:33;;;;;;;4.13;2.30;;;;;;;11.69;100.00;101371.34;687958;28;1722;-65
2023/09/14 01:34:55;;;;;;;5.03;2.20;;;;;;;11.66;100.00;101367.84;689058;28;2360;-67
2023/09/14 01:35:16;;;;;;;5.20;2.28;;;;;;;11.67;100.00;101369.59;690036;28;1485;-65
2023/09/14 01:35:52;;;;;;;4.30;2.07;;;;;;;11.66;100.00;101370.47;686398;28;1716;-66
2023/09/14 01:36:23;;;;;;;4.05;1.95;;;;;;;11.66;100.00;101370.47;688947;28;1433;-67
2023/09/14 01:36:50;;;;;;;3.88;2.03;;;;;;;11.66;100.00;101373.09;692171;28;1422;-67
2023/09/14 01:37:11;;;;;;;4.72;2.40;;;;;;;11.68;100.00;101374.84;687504;28;4529;-67
2023/09/14 01:37:32;;;;;;;5.23;2.50;;;;;;;11.65;100.00;101373.97;688096;28;1326;-66
2023/09/14 01:37:55;;;;;;;5.18;2.20;;;;;;;11.61;100.00;101367.00;689756;28;1429;-66
2023/09/14 01:38:16;;;;;;;5.68;2.20;;;;;;;11.59;100.00;101369.59;688712;28;1384;-65
2023/09/14 01:38:37;;;;;;;5.05;2.17;;;;;;;11.59;100.00;101370.47;689903;28;1344;-66
2023/09/14 01:39:00;;;;;;;4.13;2.15;;;;;;;11.57;100.00;101360.84;689633;28;1292;-66
2023/09/14 01:39:22;;;;;;;4.82;2.10;;;;;;;11.55;100.00;101368.72;687634;28;2689;-65
2023/09/14 01:39:42;;;;;;;4.85;2.10;;;;;;;11.57;100.00;101374.84;690692;28;1229;-66
2023/09/14 01:40:09;;;;;;;4.90;2.10;;;;;;;11.55;100.00;101368.72;689658;28;841;-67
2023/09/14 01:40:32;;;;;;;3.95;1.90;;;;;;;11.59;100.00;101373.09;686953;28;4986;-66
2023/09/14 01:40:53;;;;;;;4.45;2.00;;;;;;;11.60;100.00;101371.31;688451;28;1322;-66
2023/09/14 01:41:15;;;;;;;5.38;2.00;;;;;;;11.62;100.00;101368.75;690783;28;1524;-65
2023/09/14 01:41:39;;;;;;;4.60;2.00;;;;;;;11.57;100.00;101372.22;690699;28;1710;-67
2023/09/14 01:42:02;;;;;;;4.50;2.00;;;;;;;11.57;100.00;101372.22;692170;28;1314;-66
2023/09/14 01:42:23;;;;;;;4.15;1.92;;;;;;;11.55;100.00;101366.09;689806;28;4988;-65
2023/09/14 01:42:45;;;;;;;4.40;2.20;;;;;;;11.55;100.00;101373.09;691463;28;1231;-67
2023/09/14 01:43:06;;;;;;;3.25;1.92;;;;;;;11.54;100.00;101369.56;690763;28;892;-67
2023/09/14 01:43:26;;;;;;;3.40;2.00;;;;;;;11.55;100.00;101367.84;690190;28;4656;-66
2023/09/14 01:43:51;;;;;;;4.03;2.00;;;;;;;11.51;100.00;101372.19;692553;28;1942;-67
2023/09/14 01:44:15;;;;;;;6.18;2.08;;;;;;;11.47;100.00;101370.44;691641;28;1215;-66
2023/09/14 01:44:36;;;;;;;4.78;1.90;;;;;;;11.46;100.00;101365.19;688330;28;1794;-66
2023/09/14 01:44:56;;;;;;;3.90;1.90;;;;;;;11.48;100.00;101373.91;687037;28;1374;-66
2023/09/14 01:45:17;;;;;;;4.20;2.03;;;;;;;11.44;100.00;101372.16;686868;28;1355;-67
2023/09/14 01:45:38;;;;;;;4.57;1.95;;;;;;;11.45;100.00;101369.56;685900;28;1906;-66
2023/09/14 01:46:00;;;;;;;4.45;2.10;;;;;;;11.43;100.00;101363.44;683626;28;1288;-66
2023/09/14 01:46:21;;;;;;;3.95;1.83;;;;;;;11.42;100.00;101369.53;685174;28;4400;-66